Manitou Springs, Colorado
Current Conditions -  °F | °C
As of 10:56 AM on Saturday 22 Nov 2014 (Local Time) from KCWN Reporting Station
Clear Clear  
Wind Chill:   Ceiling: Unl
Heat Index: 10°   Visibility: 10mi
Dew Point: -14°   Wind: 6mph
Humidity: 18%   Direction: 350°N
Pressure: 29.75"   Gusts: NA
Location:  38.86°N, 104.92°W
Report Text: KCWN 221756Z AUTO 35005KT 10SM CLR 10/M14 A2975 RMK AO2 SLP049 T00961138 10101 20028 57020
Loading
Personal Weather Stations






























Interactive Weather Map New forecast layout! Learn more

10-Day Weather Forecast

Advertisements
Track Severe Weather on mobile